createdAt,value
2022-07-31T00:01:42.002Z,21.70
2022-07-31T00:04:14.220Z,21.70
2022-07-31T00:06:47.179Z,21.80
2022-07-31T00:09:45.571Z,21.80
2022-07-31T00:12:03.514Z,21.80
2022-07-31T00:14:31.879Z,21.80
2022-07-31T00:17:04.909Z,21.80
2022-07-31T00:19:33.481Z,21.90
2022-07-31T00:22:01.677Z,22.20
2022-07-31T00:24:35.387Z,22.20
2022-07-31T00:27:04.860Z,22.30
2022-07-31T00:29:33.313Z,22.20
2022-07-31T00:32:01.487Z,22.00
2022-07-31T00:34:31.176Z,21.80
2022-07-31T00:36:59.612Z,21.60
2022-07-31T00:39:27.835Z,21.50
2022-07-31T00:41:58.642Z,21.40
2022-07-31T00:44:27.251Z,21.40
2022-07-31T00:46:55.742Z,21.40
2022-07-31T00:49:24.646Z,21.40
2022-07-31T00:51:54.245Z,21.40
2022-07-31T00:54:25.487Z,21.40
2022-07-31T00:56:53.731Z,21.30
2022-07-31T00:59:21.869Z,21.10
2022-07-31T01:01:53.826Z,21.10
2022-07-31T01:04:22.124Z,21.00
2022-07-31T01:06:55.377Z,20.90
2022-07-31T01:09:23.703Z,20.90
2022-07-31T01:11:58.776Z,20.80
2022-07-31T01:14:30.554Z,20.70
2022-07-31T01:17:01.575Z,20.70
2022-07-31T01:19:42.213Z,20.60
2022-07-31T01:22:37.372Z,20.60
2022-07-31T01:28:22.432Z,20.50
2022-07-31T01:31:17.148Z,20.50
2022-07-31T01:33:52.069Z,20.40
2022-07-31T01:36:23.953Z,20.30
2022-07-31T01:38:58.333Z,20.20
2022-07-31T01:41:41.924Z,20.20
2022-07-31T01:44:14.093Z,20.30
2022-07-31T01:46:48.338Z,20.30
2022-07-31T01:49:23.219Z,20.30
2022-07-31T01:51:55.795Z,20.40
2022-07-31T01:54:36.710Z,20.50
2022-07-31T01:57:05.583Z,20.50
2022-07-31T01:59:42.541Z,20.60
2022-07-31T02:02:23.047Z,20.40
2022-07-31T02:04:59.403Z,20.10
2022-07-31T02:07:29.695Z,19.90
2022-07-31T02:09:59.625Z,19.90
2022-07-31T02:12:34.301Z,19.90
2022-07-31T02:15:05.543Z,19.90
2022-07-31T02:17:38.876Z,19.80
2022-07-31T02:20:26.366Z,19.80
2022-07-31T02:22:57.320Z,19.80
2022-07-31T02:25:27.258Z,19.80
2022-07-31T02:27:59.176Z,19.80
2022-07-31T02:30:39.155Z,19.90
2022-07-31T02:33:16.402Z,19.90
2022-07-31T02:35:49.166Z,19.80
2022-07-31T02:38:22.627Z,19.70
2022-07-31T02:40:57.748Z,19.70
2022-07-31T02:43:27.781Z,19.60
2022-07-31T02:45:59.050Z,19.60
2022-07-31T02:48:29.365Z,19.50
2022-07-31T02:51:02.751Z,19.60
2022-07-31T02:53:31.732Z,19.70
2022-07-31T02:56:07.798Z,19.70
2022-07-31T02:58:42.142Z,19.80
2022-07-31T03:01:17.600Z,19.70
2022-07-31T03:03:50.554Z,19.70
2022-07-31T03:06:19.013Z,19.70
2022-07-31T03:08:48.421Z,19.50
2022-07-31T03:11:20.935Z,19.40
2022-07-31T03:13:59.562Z,19.40
2022-07-31T03:16:29.208Z,19.30
2022-07-31T03:19:08.439Z,19.30
2022-07-31T03:21:40.227Z,19.20
2022-07-31T03:24:08.988Z,19.20
2022-07-31T03:26:37.842Z,19.10
2022-07-31T03:29:06.076Z,19.00
2022-07-31T03:31:54.418Z,19.00
2022-07-31T03:34:24.196Z,18.90
2022-07-31T03:36:54.687Z,18.90
2022-07-31T03:39:22.849Z,18.90
2022-07-31T03:41:52.814Z,18.90
2022-07-31T03:44:21.887Z,18.90
2022-07-31T03:46:50.778Z,18.90
2022-07-31T03:49:19.118Z,18.90
2022-07-31T03:51:48.807Z,18.90
2022-07-31T03:54:17.836Z,18.90
2022-07-31T03:56:58.801Z,18.80
2022-07-31T03:59:28.342Z,18.70
2022-07-31T04:02:04.555Z,18.60
2022-07-31T04:04:44.938Z,18.60
2022-07-31T04:07:14.506Z,18.40
2022-07-31T04:09:42.789Z,18.40
2022-07-31T04:12:12.776Z,18.20
2022-07-31T04:14:41.676Z,18.20
2022-07-31T04:17:10.515Z,18.40
2022-07-31T04:19:39.414Z,18.50
2022-07-31T04:22:08.964Z,18.60
2022-07-31T04:24:40.757Z,18.70
2022-07-31T04:27:27.278Z,18.70
2022-07-31T04:29:58.208Z,18.80
2022-07-31T04:32:26.481Z,18.90
2022-07-31T04:34:59.319Z,18.90
2022-07-31T04:37:27.665Z,19.00
2022-07-31T04:39:57.862Z,18.90
2022-07-31T04:42:26.462Z,18.90
2022-07-31T04:44:54.775Z,18.90
2022-07-31T04:47:23.213Z,19.00
2022-07-31T04:49:53.040Z,19.10
2022-07-31T04:52:21.336Z,19.00
2022-07-31T04:54:51.683Z,19.10
2022-07-31T04:57:22.233Z,19.10
2022-07-31T05:00:00.381Z,19.10
2022-07-31T05:02:34.487Z,19.10
2022-07-31T05:05:05.696Z,19.10
2022-07-31T05:07:39.223Z,19.10
2022-07-31T05:10:35.295Z,19.10
2022-07-31T05:13:05.236Z,19.10
2022-07-31T05:15:35.136Z,19.20
2022-07-31T05:18:03.609Z,19.30
2022-07-31T05:21:01.075Z,19.40
2022-07-31T05:23:32.394Z,19.40
2022-07-31T05:26:14.492Z,19.50
2022-07-31T05:28:46.463Z,19.50
2022-07-31T05:31:17.490Z,19.70
2022-07-31T05:33:46.561Z,19.70
2022-07-31T05:36:15.725Z,19.50
2022-07-31T05:38:44.267Z,19.50
2022-07-31T05:41:18.259Z,19.70
2022-07-31T05:44:05.996Z,19.70
2022-07-31T05:46:44.290Z,19.70
2022-07-31T05:49:12.664Z,19.60
2022-07-31T05:51:44.466Z,19.60
2022-07-31T05:54:13.391Z,19.60
2022-07-31T05:57:00.366Z,19.60
2022-07-31T05:59:42.327Z,19.60
2022-07-31T06:02:10.624Z,19.70
2022-07-31T06:05:05.385Z,19.80
2022-07-31T06:07:33.737Z,19.80
2022-07-31T06:10:08.164Z,19.80
2022-07-31T06:12:39.301Z,19.90
2022-07-31T06:15:10.119Z,19.90
2022-07-31T06:17:44.452Z,19.80
2022-07-31T06:20:31.440Z,19.80
2022-07-31T06:23:00.699Z,19.90
2022-07-31T06:25:44.233Z,20.00
2022-07-31T06:28:15.316Z,20.10
2022-07-31T06:30:49.308Z,20.30
2022-07-31T06:33:36.823Z,20.30
2022-07-31T06:36:06.652Z,20.40
2022-07-31T06:38:40.297Z,20.60
2022-07-31T06:41:44.034Z,20.80
2022-07-31T06:44:31.465Z,20.80
2022-07-31T06:47:13.944Z,20.80
2022-07-31T06:49:59.900Z,21.00
2022-07-31T06:52:30.024Z,21.10
2022-07-31T06:54:58.586Z,21.30
2022-07-31T06:57:26.990Z,21.30
2022-07-31T06:59:55.355Z,21.30
2022-07-31T07:02:25.221Z,21.40
2022-07-31T07:05:00.028Z,21.60
2022-07-31T07:07:58.965Z,21.70
2022-07-31T07:10:27.367Z,22.00
2022-07-31T07:13:01.730Z,22.20
2022-07-31T07:15:37.327Z,22.30
2022-07-31T07:18:09.697Z,22.20
2022-07-31T07:20:58.453Z,22.20
2022-07-31T07:23:27.767Z,22.20
2022-07-31T07:26:18.809Z,22.00
2022-07-31T07:28:50.366Z,22.10
2022-07-31T07:31:19.611Z,22.40
2022-07-31T07:33:51.486Z,22.40
2022-07-31T07:36:24.924Z,22.80
2022-07-31T07:39:05.780Z,22.40
2022-07-31T07:41:35.739Z,22.30
2022-07-31T07:44:03.953Z,22.30
2022-07-31T07:46:32.433Z,22.50
2022-07-31T07:49:06.716Z,22.50
2022-07-31T07:51:37.943Z,22.90
2022-07-31T07:54:43.267Z,23.20
2022-07-31T07:57:22.923Z,23.40
2022-07-31T08:00:12.767Z,23.60
2022-07-31T08:03:47.324Z,23.60
2022-07-31T08:05:52.450Z,23.60
2022-07-31T08:08:20.860Z,23.70
2022-07-31T08:10:49.239Z,24.00
2022-07-31T08:13:27.807Z,24.00
2022-07-31T08:16:26.284Z,24.20
2022-07-31T08:18:58.188Z,24.20
2022-07-31T08:21:28.819Z,24.20
2022-07-31T08:23:57.060Z,24.20
2022-07-31T08:26:28.128Z,24.00
2022-07-31T08:28:57.448Z,23.90
2022-07-31T08:31:28.951Z,23.70
2022-07-31T08:34:31.639Z,23.60
2022-07-31T08:38:01.147Z,23.50
2022-07-31T08:39:55.814Z,23.70
2022-07-31T08:42:25.316Z,23.70
2022-07-31T08:44:53.599Z,23.80
2022-07-31T08:47:28.070Z,24.10
2022-07-31T08:50:00.901Z,24.00
2022-07-31T08:52:34.610Z,24.20
2022-07-31T08:55:09.467Z,23.90
2022-07-31T08:57:37.831Z,23.80
2022-07-31T09:00:07.411Z,24.00
2022-07-31T09:02:35.794Z,23.90
2022-07-31T09:05:25.139Z,24.00
2022-07-31T09:07:56.701Z,24.30
2022-07-31T09:10:26.684Z,24.30
2022-07-31T09:12:55.913Z,24.40
2022-07-31T09:15:28.745Z,24.40
2022-07-31T09:17:58.026Z,24.30
2022-07-31T09:20:29.533Z,24.20
2022-07-31T09:23:09.306Z,24.30
2022-07-31T09:25:53.385Z,24.60
2022-07-31T09:28:34.025Z,24.50
2022-07-31T09:31:03.709Z,24.50
2022-07-31T09:33:51.887Z,24.50
2022-07-31T09:36:26.264Z,24.20
2022-07-31T09:39:14.040Z,24.20
2022-07-31T09:42:20.268Z,24.40
2022-07-31T09:44:55.403Z,24.40
2022-07-31T09:47:28.968Z,24.20
2022-07-31T09:50:02.762Z,24.10
2022-07-31T09:52:34.432Z,24.20
2022-07-31T09:55:16.294Z,24.40
2022-07-31T09:57:54.891Z,24.70
2022-07-31T10:00:25.628Z,24.80
2022-07-31T10:02:55.558Z,25.00
2022-07-31T10:05:25.670Z,25.60
2022-07-31T10:07:58.037Z,25.60
2022-07-31T10:10:47.683Z,25.90
2022-07-31T10:13:34.461Z,25.90
2022-07-31T10:16:04.610Z,26.10
2022-07-31T10:18:57.667Z,26.30
2022-07-31T10:21:59.783Z,26.00
2022-07-31T10:24:37.518Z,26.00
2022-07-31T10:27:09.345Z,25.80
2022-07-31T10:29:41.738Z,26.00
2022-07-31T10:32:11.449Z,26.00
2022-07-31T10:35:05.416Z,26.10
2022-07-31T10:38:04.172Z,26.30
2022-07-31T10:40:54.080Z,26.70
2022-07-31T10:43:30.814Z,26.70
2022-07-31T10:46:29.802Z,26.70
2022-07-31T10:49:45.144Z,27.10
2022-07-31T10:52:33.904Z,27.10
2022-07-31T10:55:25.281Z,27.50
2022-07-31T10:58:20.782Z,27.70
2022-07-31T11:01:05.485Z,27.70
2022-07-31T11:04:02.678Z,27.50
2022-07-31T11:07:23.090Z,27.70
2022-07-31T11:10:18.414Z,27.90
2022-07-31T11:13:10.913Z,27.40
2022-07-31T11:16:07.592Z,27.40
2022-07-31T11:19:02.551Z,27.40
2022-07-31T11:21:38.907Z,28.00
2022-07-31T11:24:14.811Z,28.00
2022-07-31T11:26:53.257Z,28.00
2022-07-31T11:30:00.805Z,28.30
2022-07-31T11:32:25.132Z,28.40
2022-07-31T11:34:56.911Z,28.50
2022-07-31T11:37:26.686Z,28.40
2022-07-31T11:40:15.752Z,28.50
2022-07-31T11:42:46.087Z,28.50
2022-07-31T11:45:16.852Z,28.20
2022-07-31T11:48:11.996Z,28.40
2022-07-31T11:50:41.807Z,28.60
2022-07-31T11:53:10.386Z,28.90
2022-07-31T11:55:50.353Z,28.90
2022-07-31T11:58:20.453Z,29.00
2022-07-31T12:00:53.506Z,28.80
2022-07-31T12:03:24.717Z,28.40
2022-07-31T12:05:55.039Z,28.30
2022-07-31T12:08:26.016Z,28.20
2022-07-31T12:10:55.460Z,28.10
2022-07-31T12:13:24.883Z,28.20
2022-07-31T12:15:57.663Z,28.50
2022-07-31T12:18:31.334Z,28.80
2022-07-31T12:21:04.196Z,29.20
2022-07-31T12:23:47.123Z,29.50
2022-07-31T12:26:23.890Z,29.70
2022-07-31T12:28:59.391Z,29.30
2022-07-31T12:31:28.414Z,29.30
2022-07-31T12:34:02.901Z,29.10
2022-07-31T12:36:35.467Z,28.90
2022-07-31T12:39:06.127Z,29.00
2022-07-31T12:41:43.425Z,29.40
2022-07-31T12:44:13.129Z,29.40
2022-07-31T12:46:42.716Z,29.30
2022-07-31T12:49:15.274Z,29.10
2022-07-31T12:51:46.837Z,28.90
2022-07-31T12:54:19.263Z,28.90
2022-07-31T12:56:49.991Z,28.80
2022-07-31T12:59:21.944Z,28.80
2022-07-31T13:01:50.366Z,28.80
2022-07-31T13:04:20.394Z,28.80
2022-07-31T13:06:51.509Z,29.00
2022-07-31T13:09:20.495Z,29.40
2022-07-31T13:11:57.730Z,29.60
2022-07-31T13:14:26.663Z,29.60
2022-07-31T13:16:56.314Z,29.30
2022-07-31T13:19:32.753Z,29.30
2022-07-31T13:22:02.118Z,29.50
2022-07-31T13:24:35.716Z,29.50
2022-07-31T13:27:04.117Z,29.60
2022-07-31T13:29:32.587Z,29.60
2022-07-31T13:32:01.832Z,29.60
2022-07-31T13:34:32.840Z,29.40
2022-07-31T13:37:01.330Z,29.30
2022-07-31T13:39:32.538Z,29.10
2022-07-31T13:42:03.251Z,28.80
2022-07-31T13:44:33.395Z,28.90
2022-07-31T13:47:06.235Z,28.80
2022-07-31T13:49:37.108Z,28.90
2022-07-31T13:52:09.582Z,28.60
2022-07-31T13:54:38.022Z,28.60
2022-07-31T13:57:11.759Z,28.70
2022-07-31T13:59:40.353Z,28.70
2022-07-31T14:02:08.792Z,28.90
2022-07-31T14:04:39.202Z,29.10
2022-07-31T14:07:47.801Z,29.20
2022-07-31T14:10:21.031Z,29.40
2022-07-31T14:12:50.105Z,29.40
2022-07-31T14:15:21.096Z,29.40
2022-07-31T14:17:49.550Z,29.00
2022-07-31T14:20:19.295Z,28.70
2022-07-31T14:22:54.290Z,28.80
2022-07-31T14:30:28.574Z,28.90
2022-07-31T14:35:28.831Z,28.80
2022-07-31T14:37:59.897Z,28.70
2022-07-31T14:40:31.947Z,28.60
2022-07-31T14:43:04.041Z,28.60
2022-07-31T14:48:20.946Z,28.70
2022-07-31T14:50:50.936Z,28.80
2022-07-31T14:53:19.623Z,28.90
2022-07-31T14:55:48.057Z,28.80
2022-07-31T14:58:16.712Z,28.90
2022-07-31T15:00:48.602Z,28.90
2022-07-31T15:06:43.862Z,28.80
2022-07-31T15:09:19.671Z,28.80
2022-07-31T15:11:59.899Z,28.80
2022-07-31T15:17:03.623Z,28.90
2022-07-31T15:22:10.141Z,29.00
2022-07-31T15:24:49.599Z,29.10
2022-07-31T15:27:19.148Z,29.00
2022-07-31T15:30:05.484Z,29.00
2022-07-31T15:32:37.499Z,29.40
2022-07-31T15:35:07.301Z,29.40
2022-07-31T15:37:38.095Z,29.60
2022-07-31T15:40:08.552Z,29.60
2022-07-31T15:42:40.710Z,29.30
2022-07-31T15:45:13.791Z,29.20
2022-07-31T15:47:45.509Z,29.10
2022-07-31T15:50:16.598Z,29.10
2022-07-31T15:52:46.220Z,29.10
2022-07-31T15:55:14.966Z,29.20
2022-07-31T15:57:47.070Z,28.90
2022-07-31T16:00:21.436Z,28.70
2022-07-31T16:02:50.418Z,28.70
2022-07-31T16:05:36.577Z,28.70
2022-07-31T16:08:32.495Z,28.80
2022-07-31T16:11:00.463Z,28.80
2022-07-31T16:13:28.864Z,29.00
2022-07-31T16:15:57.393Z,29.00
2022-07-31T16:18:32.326Z,29.10
2022-07-31T16:21:02.633Z,29.30
2022-07-31T16:23:33.739Z,29.50
2022-07-31T16:26:02.506Z,29.50
2022-07-31T16:28:31.088Z,29.30
2022-07-31T16:31:03.643Z,29.30
2022-07-31T16:33:32.193Z,29.20
2022-07-31T16:36:03.046Z,29.00
2022-07-31T16:38:36.601Z,29.20
2022-07-31T16:41:05.115Z,29.20
2022-07-31T16:43:47.415Z,29.30
2022-07-31T16:46:17.462Z,29.50
2022-07-31T16:48:48.815Z,29.70
2022-07-31T16:51:22.102Z,29.20
2022-07-31T16:54:14.115Z,29.20
2022-07-31T16:56:50.709Z,29.20
2022-07-31T16:59:21.608Z,29.40
2022-07-31T17:01:57.812Z,29.40
2022-07-31T17:04:31.504Z,29.40
2022-07-31T17:07:00.486Z,29.40
2022-07-31T17:09:32.883Z,29.50
2022-07-31T17:12:02.717Z,29.40
2022-07-31T17:19:42.665Z,29.10
2022-07-31T17:22:18.687Z,28.90
2022-07-31T17:30:21.920Z,28.60
2022-07-31T17:32:50.507Z,28.50
2022-07-31T17:35:19.382Z,28.60
2022-07-31T17:37:51.822Z,28.50
2022-07-31T17:40:42.967Z,28.60
2022-07-31T17:43:15.726Z,28.50
2022-07-31T17:45:59.674Z,28.40
2022-07-31T17:48:34.290Z,28.20
2022-07-31T17:51:03.142Z,28.20
2022-07-31T17:53:55.188Z,28.10
2022-07-31T17:56:30.347Z,28.10
2022-07-31T17:59:04.964Z,28.80
2022-07-31T18:01:34.826Z,30.00
2022-07-31T18:04:04.798Z,30.00
2022-07-31T18:06:35.961Z,29.60
2022-07-31T18:09:20.536Z,28.70
2022-07-31T18:11:51.278Z,28.20
2022-07-31T18:14:24.485Z,28.20
2022-07-31T18:16:53.899Z,28.10
2022-07-31T18:21:52.115Z,29.70
2022-07-31T18:24:21.799Z,29.70
2022-07-31T18:27:03.139Z,29.00
2022-07-31T18:32:09.180Z,28.70
2022-07-31T18:34:37.668Z,28.50
2022-07-31T18:40:17.339Z,27.50
2022-07-31T18:42:48.563Z,27.40
2022-07-31T18:45:17.264Z,27.20
2022-07-31T18:47:49.562Z,27.30
2022-07-31T18:51:01.208Z,27.10
2022-07-31T18:53:06.311Z,27.00
2022-07-31T18:55:34.588Z,27.00
2022-07-31T18:58:04.346Z,26.90
2022-07-31T19:00:32.851Z,26.80
2022-07-31T19:03:02.667Z,26.70
2022-07-31T19:05:32.060Z,26.60
2022-07-31T19:08:02.963Z,26.60
2022-07-31T19:10:32.399Z,26.60
2022-07-31T19:13:01.980Z,26.40
2022-07-31T19:15:31.876Z,26.40
2022-07-31T19:18:01.930Z,26.20
2022-07-31T19:26:20.883Z,26.10
2022-07-31T19:28:50.059Z,26.00
2022-07-31T19:31:29.624Z,25.90
2022-07-31T19:33:58.601Z,25.90
2022-07-31T19:36:27.077Z,25.90
2022-07-31T19:41:25.854Z,25.90
2022-07-31T19:43:57.497Z,25.90
2022-07-31T19:46:27.534Z,25.80
2022-07-31T19:48:56.445Z,25.70
2022-07-31T19:51:27.972Z,25.70
2022-07-31T19:56:26.842Z,25.60
2022-07-31T19:58:57.910Z,25.50
2022-07-31T20:01:34.513Z,25.50
2022-07-31T20:04:27.992Z,25.30
2022-07-31T20:07:04.990Z,25.10
2022-07-31T20:09:34.063Z,24.90
2022-07-31T20:14:34.253Z,24.80
2022-07-31T20:17:06.600Z,24.70
2022-07-31T20:20:14.367Z,24.50
2022-07-31T20:22:42.842Z,24.40
2022-07-31T20:25:20.345Z,24.40
2022-07-31T20:27:53.519Z,24.20
2022-07-31T20:30:23.527Z,24.00
2022-07-31T20:32:56.059Z,24.10
2022-07-31T20:35:29.254Z,24.20
2022-07-31T20:38:17.902Z,24.10
2022-07-31T20:40:53.803Z,24.10
2022-07-31T20:43:27.233Z,24.10
2022-07-31T20:45:59.441Z,24.00
2022-07-31T20:48:33.068Z,24.10
2022-07-31T20:51:03.534Z,24.00
2022-07-31T20:53:34.161Z,24.00
2022-07-31T20:56:03.646Z,24.00
2022-07-31T20:58:46.125Z,23.90
2022-07-31T21:01:18.337Z,24.00
2022-07-31T21:03:57.649Z,24.00
2022-07-31T21:06:40.995Z,23.90
2022-07-31T21:09:12.523Z,23.90
2022-07-31T21:11:41.068Z,23.90
2022-07-31T21:17:09.086Z,23.80
2022-07-31T21:22:19.440Z,23.80
2022-07-31T21:24:51.304Z,23.60
